createdAt,value
2023-12-23T00:00:42.701Z,1004.67
2023-12-23T00:01:46.107Z,1004.67
2023-12-23T00:02:49.426Z,1004.67
2023-12-23T00:03:52.934Z,1004.65
2023-12-23T00:04:56.469Z,1004.65
2023-12-23T00:05:59.905Z,1004.71
2023-12-23T00:07:03.313Z,1004.77
2023-12-23T00:08:06.910Z,1004.69
2023-12-23T00:09:10.266Z,1004.63
2023-12-23T00:10:13.641Z,1004.63
2023-12-23T00:11:17.192Z,1004.69
2023-12-23T00:12:20.794Z,1004.69
2023-12-23T00:13:24.312Z,1004.75
2023-12-23T00:14:27.767Z,1004.8
2023-12-23T00:15:31.124Z,1004.77
2023-12-23T00:16:34.764Z,1004.77
2023-12-23T00:17:39.211Z,1004.75
2023-12-23T00:18:43.063Z,1004.8
2023-12-23T00:19:46.929Z,1004.84
2023-12-23T00:20:50.596Z,1004.86
2023-12-23T00:21:53.959Z,1004.77
2023-12-23T00:22:57.743Z,1004.8
2023-12-23T00:24:01.177Z,1004.88
2023-12-23T00:25:04.433Z,1004.82
2023-12-23T00:26:07.921Z,1004.86
2023-12-23T00:27:11.536Z,1004.82
2023-12-23T00:28:14.997Z,1004.88
2023-12-23T00:29:18.261Z,1004.88
2023-12-23T00:30:21.614Z,1004.92
2023-12-23T00:31:24.976Z,1004.94
2023-12-23T00:32:28.380Z,1005.02
2023-12-23T00:33:31.732Z,1005
2023-12-23T00:34:35.147Z,1004.94
2023-12-23T00:35:39.957Z,1005
2023-12-23T00:36:43.281Z,1004.92
2023-12-23T00:37:47.264Z,1004.92
2023-12-23T00:38:50.703Z,1004.9
2023-12-23T00:39:53.980Z,1004.82
2023-12-23T00:40:58.886Z,1004.82
2023-12-23T00:42:02.270Z,1004.8
2023-12-23T00:43:05.517Z,1004.8
2023-12-23T00:46:15.418Z,1004.77
2023-12-23T00:47:18.990Z,1004.75
2023-12-23T00:48:22.899Z,1004.75
2023-12-23T00:49:26.560Z,1004.71
2023-12-23T00:50:29.867Z,1004.77
2023-12-23T00:51:33.136Z,1004.8
2023-12-23T00:52:36.520Z,1004.84
2023-12-23T00:53:39.982Z,1004.86
2023-12-23T00:54:43.321Z,1004.82
2023-12-23T00:58:56.467Z,1004.8
2023-12-23T00:59:59.854Z,1004.79
2023-12-23T01:01:03.199Z,1004.8
2023-12-23T01:02:06.623Z,1004.84
2023-12-23T01:03:10.006Z,1004.88
2023-12-23T01:04:13.305Z,1004.84
2023-12-23T01:05:16.914Z,1004.8
2023-12-23T01:06:20.523Z,1004.84
2023-12-23T01:07:25.364Z,1004.8
2023-12-23T01:08:28.822Z,1004.86
2023-12-23T01:09:32.141Z,1004.88
2023-12-23T01:10:35.560Z,1004.82
2023-12-23T01:11:38.938Z,1004.82
2023-12-23T01:12:43.753Z,1004.79
2023-12-23T01:14:50.229Z,1004.82
2023-12-23T01:15:53.515Z,1004.79
2023-12-23T01:16:56.945Z,1004.8
2023-12-23T01:18:00.895Z,1004.77
2023-12-23T01:19:04.628Z,1004.77
2023-12-23T01:21:11.483Z,1004.75
2023-12-23T01:22:14.764Z,1004.77
2023-12-23T01:23:18.316Z,1004.73
2023-12-23T01:24:21.672Z,1004.8
2023-12-23T01:25:26.522Z,1004.8
2023-12-23T01:26:29.852Z,1004.8
2023-12-23T01:27:33.064Z,1004.82
2023-12-23T01:28:36.471Z,1004.88
2023-12-23T01:29:39.748Z,1004.86
2023-12-23T01:30:43.218Z,1004.96
2023-12-23T01:34:57.645Z,1004.75
2023-12-23T01:36:02.529Z,1004.8
2023-12-23T01:37:05.757Z,1004.73
2023-12-23T01:40:17.127Z,1004.84
2023-12-23T01:41:20.624Z,1004.86
2023-12-23T01:42:23.888Z,1004.86
2023-12-23T01:43:28.659Z,1004.82
2023-12-23T01:44:31.870Z,1004.84
2023-12-23T01:45:36.999Z,1004.84
2023-12-23T01:46:40.432Z,1004.92
2023-12-23T01:47:43.976Z,1004.84
2023-12-23T01:50:54.385Z,1004.84
2023-12-23T01:51:57.715Z,1004.8
2023-12-23T01:53:01.184Z,1004.79
2023-12-23T01:54:04.514Z,1004.8
2023-12-23T01:56:11.195Z,1004.84
2023-12-23T01:57:14.510Z,1004.84
2023-12-23T01:58:17.884Z,1004.77
2023-12-23T01:59:21.331Z,1004.77
2023-12-23T02:00:26.127Z,1004.71
2023-12-23T02:01:31.175Z,1004.79
2023-12-23T02:02:34.535Z,1004.77
2023-12-23T02:03:37.933Z,1004.63
2023-12-23T02:04:41.386Z,1004.59
2023-12-23T02:09:57.993Z,1004.55
2023-12-23T02:11:03.022Z,1004.57
2023-12-23T02:12:06.218Z,1004.61
2023-12-23T02:15:22.684Z,1004.65
2023-12-23T02:16:25.973Z,1004.57
2023-12-23T02:17:30.984Z,1004.61
2023-12-23T02:18:35.382Z,1004.59
2023-12-23T02:19:38.773Z,1004.55
2023-12-23T02:20:42.115Z,1004.55
2023-12-23T02:24:57.508Z,1004.53
2023-12-23T02:26:01.012Z,1004.59
2023-12-23T02:27:04.355Z,1004.55
2023-12-23T02:29:11.065Z,1004.51
2023-12-23T02:30:14.679Z,1004.57
2023-12-23T02:31:18.020Z,1004.57
2023-12-23T02:32:23.703Z,1004.55
2023-12-23T02:33:27.646Z,1004.57
2023-12-23T02:34:31.033Z,1004.53
2023-12-23T02:35:34.385Z,1004.47
2023-12-23T02:36:37.642Z,1004.51
2023-12-23T02:37:42.594Z,1004.49
2023-12-23T02:39:49.299Z,1004.45
2023-12-23T02:40:52.845Z,1004.39
2023-12-23T02:41:56.242Z,1004.37
2023-12-23T02:43:01.071Z,1004.35
2023-12-23T02:44:05.930Z,1004.35
2023-12-23T02:46:12.443Z,1004.37
2023-12-23T02:47:15.962Z,1004.33
2023-12-23T02:48:19.518Z,1004.28
2023-12-23T02:49:22.832Z,1004.24
2023-12-23T02:50:27.687Z,1004.2
2023-12-23T02:51:32.488Z,1004.24
2023-12-23T02:52:35.871Z,1004.24
2023-12-23T02:53:39.121Z,1004.33
2023-12-23T02:54:42.556Z,1004.31
2023-12-23T02:56:49.273Z,1004.24
2023-12-23T02:57:52.526Z,1004.22
2023-12-23T02:58:56.167Z,1004.22
2023-12-23T02:59:59.438Z,1004.2
2023-12-23T03:01:03.099Z,1004.18
2023-12-23T03:03:09.752Z,1004.1
2023-12-23T03:04:13.054Z,1004.06
2023-12-23T03:05:16.626Z,1004.08
2023-12-23T03:06:20.105Z,1004.04
2023-12-23T03:07:23.560Z,1003.98
2023-12-23T03:08:26.867Z,1004
2023-12-23T03:09:30.178Z,1004.06
2023-12-23T03:10:33.477Z,1004.08
2023-12-23T03:11:36.788Z,1004.14
2023-12-23T03:12:40.013Z,1004.06
2023-12-23T03:13:43.498Z,1004.04
2023-12-23T03:15:50.045Z,1004.02
2023-12-23T03:16:53.507Z,1003.96
2023-12-23T03:17:58.896Z,1004
2023-12-23T03:19:04.102Z,1003.94
2023-12-23T03:22:15.477Z,1003.98
2023-12-23T03:23:18.859Z,1003.96
2023-12-23T03:24:22.206Z,1003.92
2023-12-23T03:25:25.482Z,1003.9
2023-12-23T03:26:28.937Z,1003.94
2023-12-23T03:27:32.257Z,1003.88
2023-12-23T03:28:35.695Z,1003.9
2023-12-23T03:29:39.058Z,1003.84
2023-12-23T03:30:42.547Z,1003.86
2023-12-23T03:32:50.457Z,1003.77
2023-12-23T03:33:54.118Z,1003.77
2023-12-23T03:34:57.647Z,1003.8
2023-12-23T03:36:01.096Z,1003.75
2023-12-23T03:37:04.356Z,1003.77
2023-12-23T03:39:11.110Z,1003.75
2023-12-23T03:40:14.355Z,1003.69
2023-12-23T03:41:17.901Z,1003.67
2023-12-23T03:42:21.332Z,1003.65
2023-12-23T03:43:24.577Z,1003.67
2023-12-23T03:44:27.822Z,1003.61
2023-12-23T03:45:33.154Z,1003.63
2023-12-23T03:46:37.922Z,1003.67
2023-12-23T03:47:41.482Z,1003.63
2023-12-23T03:49:48.021Z,1003.59
2023-12-23T03:50:51.384Z,1003.69
2023-12-23T03:51:54.622Z,1003.67
2023-12-23T03:52:59.506Z,1003.65
2023-12-23T03:54:02.838Z,1003.67
2023-12-23T03:56:09.490Z,1003.61
2023-12-23T03:57:12.834Z,1003.61
2023-12-23T03:58:17.732Z,1003.53
2023-12-23T03:59:21.460Z,1003.51
2023-12-23T04:00:24.921Z,1003.57
2023-12-23T04:01:28.230Z,1003.47
2023-12-23T04:02:31.485Z,1003.53
2023-12-23T04:03:35.052Z,1003.55
2023-12-23T04:04:38.574Z,1003.59
2023-12-23T04:05:43.488Z,1003.59
2023-12-23T04:08:54.777Z,1003.57
2023-12-23T04:09:58.082Z,1003.55
2023-12-23T04:11:01.491Z,1003.51
2023-12-23T04:12:04.827Z,1003.55
2023-12-23T04:14:13.692Z,1003.51
2023-12-23T04:15:16.993Z,1003.59
2023-12-23T04:16:21.784Z,1003.53
2023-12-23T04:17:25.352Z,1003.55
2023-12-23T04:18:29.066Z,1003.57
2023-12-23T04:19:32.418Z,1003.51
2023-12-23T04:20:35.671Z,1003.47
2023-12-23T04:21:39.040Z,1003.39
2023-12-23T04:22:42.426Z,1003.49
2023-12-23T04:24:49.018Z,1003.39
2023-12-23T04:25:52.313Z,1003.39
2023-12-23T04:26:55.695Z,1003.37
2023-12-23T04:27:59.116Z,1003.41
2023-12-23T04:29:02.663Z,1003.3
2023-12-23T04:31:09.712Z,1003.3
2023-12-23T04:32:13.276Z,1003.28
2023-12-23T04:33:16.838Z,1003.37
2023-12-23T04:34:20.298Z,1003.3
2023-12-23T04:35:23.886Z,1003.28
2023-12-23T04:36:27.260Z,1003.33
2023-12-23T04:37:30.596Z,1003.31
2023-12-23T04:38:33.944Z,1003.31
2023-12-23T04:39:37.252Z,1003.31
2023-12-23T04:40:40.616Z,1003.31
2023-12-23T04:44:54.207Z,1003.26
2023-12-23T04:45:57.569Z,1003.3
2023-12-23T04:47:01.056Z,1003.22
2023-12-23T04:48:04.555Z,1003.22
2023-12-23T04:50:12.835Z,1003.16
2023-12-23T04:51:16.090Z,1003.2
2023-12-23T04:52:19.401Z,1003.16
2023-12-23T04:53:24.901Z,1003.14
2023-12-23T04:54:28.231Z,1003.14
2023-12-23T04:55:31.524Z,1003.18
2023-12-23T04:56:34.793Z,1003.14
2023-12-23T04:57:38.013Z,1003.08
2023-12-23T04:58:41.348Z,1003.04
2023-12-23T05:00:49.452Z,1003.12
2023-12-23T05:01:52.861Z,1003.06
2023-12-23T05:02:56.370Z,1003.08
2023-12-23T05:03:59.699Z,1003.04
2023-12-23T05:05:03.891Z,1003
2023-12-23T05:07:12.124Z,1002.94
2023-12-23T05:08:15.451Z,1002.92
2023-12-23T05:09:18.821Z,1002.9
2023-12-23T05:10:22.081Z,1002.92
2023-12-23T05:11:25.441Z,1002.9
2023-12-23T05:12:29.030Z,1002.96
2023-12-23T05:13:32.307Z,1002.92
2023-12-23T05:14:35.592Z,1002.92
2023-12-23T05:15:38.880Z,1002.84
2023-12-23T05:18:50.729Z,1002.94
2023-12-23T05:19:54.252Z,1002.9
2023-12-23T05:20:57.595Z,1003
2023-12-23T05:22:00.887Z,1002.94
2023-12-23T05:23:04.253Z,1002.98
2023-12-23T05:25:10.773Z,1002.96
2023-12-23T05:26:14.159Z,1002.98
2023-12-23T05:27:17.473Z,1002.9
2023-12-23T05:28:20.712Z,1002.84
2023-12-23T05:29:24.221Z,1002.82
2023-12-23T05:30:27.658Z,1002.84
2023-12-23T05:31:32.493Z,1002.82
2023-12-23T05:32:36.004Z,1002.76
2023-12-23T05:33:39.752Z,1002.78
2023-12-23T05:34:43.298Z,1002.76
2023-12-23T05:36:49.998Z,1002.58
2023-12-23T05:37:53.740Z,1002.69
2023-12-23T05:38:57.048Z,1002.71
2023-12-23T05:40:00.348Z,1002.73
2023-12-23T05:41:03.750Z,1002.58
2023-12-23T05:43:10.252Z,1002.5
2023-12-23T05:44:15.160Z,1002.48
2023-12-23T05:45:18.354Z,1002.54
2023-12-23T05:46:21.640Z,1002.5
2023-12-23T05:47:25.632Z,1002.54
2023-12-23T05:48:29.342Z,1002.52
2023-12-23T05:49:34.868Z,1002.5
2023-12-23T05:50:38.113Z,1002.5
2023-12-23T05:51:41.396Z,1002.6
2023-12-23T05:53:47.915Z,1002.52
2023-12-23T05:54:51.216Z,1002.48
2023-12-23T05:55:56.928Z,1002.46
2023-12-23T05:57:01.706Z,1002.42
2023-12-23T06:00:13.863Z,1002.56
2023-12-23T06:01:17.268Z,1002.46
2023-12-23T06:02:20.777Z,1002.48
2023-12-23T06:03:24.260Z,1002.48
2023-12-23T06:04:27.676Z,1002.46
2023-12-23T06:05:31.329Z,1002.35
2023-12-23T06:06:34.940Z,1002.46
2023-12-23T06:07:38.293Z,1002.39
2023-12-23T06:09:46.825Z,1002.39
2023-12-23T06:10:59.722Z,1002.41
2023-12-23T06:12:03.496Z,1002.41
2023-12-23T06:13:06.753Z,1002.44
2023-12-23T06:14:10.152Z,1002.46
2023-12-23T06:15:13.610Z,1002.56
2023-12-23T06:16:16.866Z,1002.69
2023-12-23T06:17:20.621Z,1002.69
2023-12-23T06:18:25.658Z,1002.69
2023-12-23T06:19:28.979Z,1002.75
2023-12-23T06:20:32.368Z,1002.8
2023-12-23T06:21:35.821Z,1002.76
2023-12-23T06:22:39.151Z,1002.9
2023-12-23T06:23:42.477Z,1002.76
2023-12-23T06:24:45.761Z,1002.76
2023-12-23T06:25:49.180Z,1002.75
2023-12-23T06:26:52.480Z,1002.8
2023-12-23T06:27:55.695Z,1002.76
2023-12-23T06:28:59.140Z,1002.8
2023-12-23T06:30:02.428Z,1002.86
2023-12-23T06:31:05.717Z,1002.78
2023-12-23T06:32:09.131Z,1002.76
2023-12-23T06:33:12.752Z,1002.82
2023-12-23T06:34:16.207Z,1002.84
2023-12-23T06:35:20.182Z,1002.76
2023-12-23T06:36:23.680Z,1002.86
2023-12-23T06:37:27.019Z,1002.84
2023-12-23T06:38:30.532Z,1002.88
2023-12-23T06:39:33.931Z,1002.92
2023-12-23T06:40:37.175Z,1002.94
2023-12-23T06:41:40.429Z,1002.9
2023-12-23T06:42:43.794Z,1002.86
2023-12-23T06:43:53.847Z,1002.9
2023-12-23T06:44:57.104Z,1002.9
2023-12-23T06:46:00.337Z,1002.98
2023-12-23T06:47:03.741Z,1002.98
2023-12-23T06:48:07.517Z,1002.92
2023-12-23T06:50:16.081Z,1002.9
2023-12-23T06:51:19.461Z,1002.88
2023-12-23T06:52:22.766Z,1002.86
2023-12-23T06:53:26.160Z,1002.88
2023-12-23T06:54:29.403Z,1002.94
2023-12-23T06:55:32.790Z,1002.94
2023-12-23T06:56:36.271Z,1002.8
2023-12-23T06:57:39.564Z,1002.94
2023-12-23T06:58:42.976Z,1002.92
2023-12-23T06:59:46.319Z,1002.86
2023-12-23T07:00:49.680Z,1003
2023-12-23T07:01:53.102Z,1002.92
2023-12-23T07:02:56.449Z,1002.94
2023-12-23T07:03:59.752Z,1002.86
2023-12-23T07:05:03.444Z,1002.84
2023-12-23T07:06:06.971Z,1002.84
2023-12-23T07:07:10.294Z,1002.88
2023-12-23T07:08:13.596Z,1003
2023-12-23T07:09:17.042Z,1003.02
2023-12-23T07:10:20.388Z,1002.88
2023-12-23T07:11:23.832Z,1003
2023-12-23T07:12:28.212Z,1002.94
2023-12-23T07:13:31.910Z,1002.8
2023-12-23T07:14:35.220Z,1002.9
2023-12-23T07:15:38.532Z,1002.94
2023-12-23T07:16:41.892Z,1002.9
2023-12-23T07:17:45.589Z,1003.06
2023-12-23T07:18:49.230Z,1002.94
2023-12-23T07:19:52.589Z,1002.9
2023-12-23T07:20:55.948Z,1003.06
2023-12-23T07:22:00.747Z,1003.02
2023-12-23T07:25:12.120Z,1002.9
2023-12-23T07:26:15.775Z,1002.86
2023-12-23T07:27:19.269Z,1002.94
2023-12-23T07:28:22.577Z,1002.96
2023-12-23T07:29:26.030Z,1002.88
2023-12-23T07:30:29.504Z,1002.8
2023-12-23T07:31:32.813Z,1002.9
2023-12-23T07:32:36.341Z,1002.84
2023-12-23T07:33:39.938Z,1002.75
2023-12-23T07:36:51.172Z,1002.86
2023-12-23T07:37:54.577Z,1002.78
2023-12-23T07:38:57.906Z,1002.86
2023-12-23T07:40:01.139Z,1002.8
2023-12-23T07:44:14.376Z,1002.84
2023-12-23T07:45:19.775Z,1002.84
2023-12-23T07:46:23.061Z,1002.78
2023-12-23T07:47:26.701Z,1002.82
2023-12-23T07:48:30.224Z,1002.84
2023-12-23T07:49:39.533Z,1002.82
2023-12-23T07:51:46.012Z,1002.8
2023-12-23T07:52:50.073Z,1002.76
2023-12-23T07:53:55.329Z,1002.8
2023-12-23T07:54:58.686Z,1002.75
2023-12-23T07:56:02.284Z,1002.82
2023-12-23T07:58:10.510Z,1002.86
2023-12-23T07:59:13.837Z,1002.8
2023-12-23T08:00:17.163Z,1002.8
2023-12-23T08:01:20.574Z,1002.82
2023-12-23T08:02:24.240Z,1002.86
2023-12-23T08:03:27.719Z,1002.8
2023-12-23T08:04:31.030Z,1002.84
2023-12-23T08:05:34.559Z,1002.92
2023-12-23T08:06:38.140Z,1002.92
2023-12-23T08:07:41.591Z,1002.86
2023-12-23T08:09:49.784Z,1002.88
2023-12-23T08:10:53.249Z,1002.92
2023-12-23T08:11:56.600Z,1002.94
2023-12-23T08:13:00.016Z,1002.9
2023-12-23T08:14:03.443Z,1002.96
2023-12-23T08:16:09.957Z,1002.98
2023-12-23T08:17:13.487Z,1002.94
2023-12-23T08:18:17.092Z,1003
2023-12-23T08:19:22.924Z,1002.94
2023-12-23T08:20:26.547Z,1002.94
2023-12-23T08:21:29.899Z,1002.94
2023-12-23T08:22:33.249Z,1003
2023-12-23T08:23:36.648Z,1002.96
2023-12-23T08:24:39.956Z,1002.96
2023-12-23T08:26:46.542Z,1002.94
2023-12-23T08:27:49.828Z,1003.02
2023-12-23T08:28:53.456Z,1002.94
2023-12-23T08:29:56.942Z,1002.96
2023-12-23T08:31:00.331Z,1003
2023-12-23T08:34:10.764Z,1002.92
2023-12-23T08:35:14.204Z,1003.02
2023-12-23T08:36:17.527Z,1002.9
2023-12-23T08:37:20.797Z,1002.88
2023-12-23T08:38:24.279Z,1002.84
2023-12-23T08:39:27.702Z,1002.88
2023-12-23T08:40:30.984Z,1002.84
2023-12-23T08:41:34.262Z,1002.86
2023-12-23T08:42:37.580Z,1002.88
2023-12-23T08:43:41.004Z,1002.76
2023-12-23T08:45:47.824Z,1002.75
2023-12-23T08:46:51.332Z,1002.75
2023-12-23T08:47:56.045Z,1002.76
2023-12-23T08:48:59.998Z,1002.76
2023-12-23T08:52:10.094Z,1002.82
2023-12-23T08:53:13.556Z,1002.75
2023-12-23T08:54:16.880Z,1002.86
2023-12-23T08:55:20.182Z,1002.76
2023-12-23T08:56:23.831Z,1002.84
2023-12-23T08:57:28.762Z,1002.82
2023-12-23T08:58:32.049Z,1002.84
2023-12-23T08:59:37.327Z,1002.88
2023-12-23T09:00:40.662Z,1002.82
2023-12-23T09:02:47.332Z,1002.94
2023-12-23T09:03:52.783Z,1002.9
2023-12-23T09:04:56.416Z,1002.86
2023-12-23T09:06:00.306Z,1002.9
2023-12-23T09:08:08.890Z,1002.86
2023-12-23T09:09:14.155Z,1002.75
2023-12-23T09:10:17.510Z,1002.88
2023-12-23T09:11:21.064Z,1002.84
2023-12-23T09:12:24.421Z,1002.86
2023-12-23T09:13:27.669Z,1002.8
2023-12-23T09:14:31.309Z,1002.86
2023-12-23T09:15:34.630Z,1002.92
2023-12-23T09:16:38.078Z,1002.96
2023-12-23T09:17:41.824Z,1002.96
2023-12-23T09:19:48.768Z,1003
2023-12-23T09:20:52.201Z,1003
2023-12-23T09:21:55.489Z,1002.98
2023-12-23T09:22:58.964Z,1003
2023-12-23T09:24:02.381Z,1003.1
2023-12-23T09:26:09.009Z,1003.14
2023-12-23T09:27:12.278Z,1003.16
2023-12-23T09:28:15.557Z,1003.2
2023-12-23T09:29:18.991Z,1003.18
2023-12-23T09:30:22.573Z,1003.18
2023-12-23T09:31:25.923Z,1003.3
2023-12-23T09:32:29.596Z,1003.28
2023-12-23T09:33:33.223Z,1003.33
2023-12-23T09:34:36.577Z,1003.41
2023-12-23T09:35:40.010Z,1003.35
2023-12-23T09:37:46.778Z,1003.39
2023-12-23T09:38:50.170Z,1003.35
2023-12-23T09:39:53.533Z,1003.35
2023-12-23T09:40:56.947Z,1003.35
2023-12-23T09:42:00.433Z,1003.39
2023-12-23T09:44:08.597Z,1003.45
2023-12-23T09:45:11.859Z,1003.35
2023-12-23T09:46:15.261Z,1003.33
2023-12-23T09:47:18.704Z,1003.35
2023-12-23T09:48:22.415Z,1003.37
2023-12-23T09:49:26.358Z,1003.41
2023-12-23T09:50:31.503Z,1003.35
2023-12-23T09:51:34.812Z,1003.35
2023-12-23T09:52:38.108Z,1003.37
2023-12-23T09:56:51.305Z,1003.37
2023-12-23T09:57:54.620Z,1003.43
2023-12-23T09:58:57.997Z,1003.37
2023-12-23T10:00:01.368Z,1003.31
2023-12-23T10:02:08.235Z,1003.55
2023-12-23T10:03:11.618Z,1003.49
2023-12-23T10:04:14.993Z,1003.51
2023-12-23T10:05:18.701Z,1003.49
2023-12-23T10:06:23.341Z,1003.57
2023-12-23T10:07:26.696Z,1003.55
2023-12-23T10:08:31.688Z,1003.65
2023-12-23T10:09:35.045Z,1003.63
2023-12-23T10:10:38.309Z,1003.71
2023-12-23T10:14:51.439Z,1003.69
2023-12-23T10:15:54.692Z,1003.61
2023-12-23T10:16:59.648Z,1003.63
2023-12-23T10:20:10.237Z,1003.65
2023-12-23T10:21:13.573Z,1003.71
2023-12-23T10:22:16.928Z,1003.59
2023-12-23T10:23:20.306Z,1003.63
2023-12-23T10:24:23.624Z,1003.63
2023-12-23T10:25:26.884Z,1003.67
2023-12-23T10:26:30.511Z,1003.63
2023-12-23T10:27:33.822Z,1003.55
2023-12-23T10:28:37.168Z,1003.61
2023-12-23T10:30:45.797Z,1003.65
2023-12-23T10:31:49.314Z,1003.65
2023-12-23T10:32:53.455Z,1003.65
2023-12-23T10:33:57.012Z,1003.71
2023-12-23T10:35:01.266Z,1003.61
2023-12-23T10:37:08.209Z,1003.59
2023-12-23T10:38:13.104Z,1003.57
2023-12-23T10:39:16.364Z,1003.63
2023-12-23T10:40:19.653Z,1003.57
2023-12-23T10:41:23.118Z,1003.67
2023-12-23T10:42:26.495Z,1003.67
2023-12-23T10:43:29.792Z,1003.63
2023-12-23T10:44:35.083Z,1003.65
2023-12-23T10:45:38.315Z,1003.71
2023-12-23T10:47:45.212Z,1003.61
2023-12-23T10:48:49.049Z,1003.57
2023-12-23T10:49:52.510Z,1003.63
2023-12-23T10:51:01.858Z,1003.65
2023-12-23T10:53:08.575Z,1003.65
2023-12-23T10:54:12.096Z,1003.69
2023-12-23T10:55:15.451Z,1003.71
2023-12-23T10:56:20.498Z,1003.67
2023-12-23T10:57:23.953Z,1003.73
2023-12-23T10:58:28.822Z,1003.67
2023-12-23T10:59:32.157Z,1003.63
2023-12-23T11:00:37.074Z,1003.75
2023-12-23T11:02:45.144Z,1003.67
2023-12-23T11:03:48.635Z,1003.65
2023-12-23T11:04:52.176Z,1003.65
2023-12-23T11:05:55.759Z,1003.63
2023-12-23T11:07:01.333Z,1003.55
2023-12-23T11:10:22.137Z,1003.55
2023-12-23T11:11:25.717Z,1003.53
2023-12-23T11:12:29.026Z,1003.55
2023-12-23T11:13:32.321Z,1003.57
2023-12-23T11:14:35.621Z,1003.53
2023-12-23T11:15:38.964Z,1003.53
2023-12-23T11:17:47.710Z,1003.51
2023-12-23T11:18:51.471Z,1003.59
2023-12-23T11:19:54.837Z,1003.71
2023-12-23T11:20:58.186Z,1003.61
2023-12-23T11:22:01.466Z,1003.55
2023-12-23T11:24:08.046Z,1003.57
2023-12-23T11:25:11.359Z,1003.63
2023-12-23T11:26:14.754Z,1003.63
2023-12-23T11:27:18.041Z,1003.65
2023-12-23T11:28:21.394Z,1003.75
2023-12-23T11:29:24.846Z,1003.77
2023-12-23T11:30:28.243Z,1003.77
2023-12-23T11:31:31.517Z,1003.84
2023-12-23T11:32:35.186Z,1003.78
2023-12-23T11:33:39.413Z,1003.86
2023-12-23T11:35:47.546Z,1003.8
2023-12-23T11:36:50.751Z,1003.78
2023-12-23T11:37:55.278Z,1003.82
2023-12-23T11:38:58.773Z,1003.78
2023-12-23T11:40:02.227Z,1003.77
2023-12-23T11:42:08.978Z,1003.69
2023-12-23T11:43:13.779Z,1003.73
2023-12-23T11:44:17.735Z,1003.67
2023-12-23T11:45:21.500Z,1003.67
2023-12-23T11:46:24.894Z,1003.63
2023-12-23T11:47:28.732Z,1003.69
2023-12-23T11:48:32.313Z,1003.69
2023-12-23T11:49:35.747Z,1003.71
2023-12-23T11:50:39.064Z,1003.69
2023-12-23T11:52:45.814Z,1003.8
2023-12-23T11:53:49.355Z,1003.82
2023-12-23T11:54:54.212Z,1003.84
2023-12-23T11:55:57.627Z,1003.78
2023-12-23T11:57:00.959Z,1003.78
2023-12-23T11:59:07.714Z,1003.71
2023-12-23T12:00:11.178Z,1003.75
2023-12-23T12:01:14.613Z,1003.71
2023-12-23T12:02:20.151Z,1003.63
2023-12-23T12:03:23.467Z,1003.61
2023-12-23T12:04:26.766Z,1003.61
2023-12-23T12:05:30.325Z,1003.65
2023-12-23T12:06:34.070Z,1003.59
2023-12-23T12:07:37.448Z,1003.59
2023-12-23T12:10:47.353Z,1003.53
2023-12-23T12:11:50.747Z,1003.57
2023-12-23T12:12:54.978Z,1003.47
2023-12-23T12:13:58.474Z,1003.47
2023-12-23T12:15:01.814Z,1003.45
2023-12-23T12:17:10.751Z,1003.49
2023-12-23T12:18:14.552Z,1003.53
2023-12-23T12:19:18.445Z,1003.49
2023-12-23T12:20:21.995Z,1003.55
2023-12-23T12:21:25.302Z,1003.43
2023-12-23T12:22:28.571Z,1003.43
2023-12-23T12:23:32.016Z,1003.45
2023-12-23T12:24:35.399Z,1003.49
2023-12-23T12:25:38.855Z,1003.45
2023-12-23T12:28:48.961Z,1003.51
2023-12-23T12:29:52.261Z,1003.45
2023-12-23T12:30:55.990Z,1003.41
2023-12-23T12:31:59.494Z,1003.39
2023-12-23T12:34:06.694Z,1003.43
2023-12-23T12:35:10.100Z,1003.39
2023-12-23T12:36:15.577Z,1003.43
2023-12-23T12:37:18.873Z,1003.37
2023-12-23T12:38:25.261Z,1003.39
2023-12-23T12:39:28.488Z,1003.53
2023-12-23T12:40:33.287Z,1003.45
2023-12-23T12:41:36.487Z,1003.47
2023-12-23T12:42:39.795Z,1003.45
2023-12-23T12:45:51.568Z,1003.51
2023-12-23T12:46:54.930Z,1003.47
2023-12-23T12:47:58.493Z,1003.39
2023-12-23T12:52:14.576Z,1003.43
2023-12-23T12:53:18.000Z,1003.45
2023-12-23T12:54:21.326Z,1003.41
2023-12-23T12:55:24.664Z,1003.51
2023-12-23T12:56:28.080Z,1003.51
2023-12-23T12:57:32.906Z,1003.55
2023-12-23T12:58:37.132Z,1003.57
2023-12-23T13:00:47.325Z,1003.53
2023-12-23T13:01:50.779Z,1003.65
2023-12-23T13:02:55.093Z,1003.71
2023-12-23T13:03:58.493Z,1003.63
2023-12-23T13:06:07.228Z,1003.65
2023-12-23T13:07:10.581Z,1003.57
2023-12-23T13:08:14.084Z,1003.61
2023-12-23T13:09:17.450Z,1003.61
2023-12-23T13:10:20.821Z,1003.55
2023-12-23T13:11:24.358Z,1003.59
2023-12-23T13:12:27.696Z,1003.67
2023-12-23T13:13:30.974Z,1003.69
2023-12-23T13:14:34.359Z,1003.73
2023-12-23T13:15:37.715Z,1003.78
2023-12-23T13:16:47.898Z,1003.73
2023-12-23T13:17:51.572Z,1003.86
2023-12-23T13:19:01.829Z,1003.8
2023-12-23T13:20:05.572Z,1003.88
2023-12-23T13:22:12.118Z,1003.82
2023-12-23T13:23:15.398Z,1003.94
2023-12-23T13:24:18.662Z,1003.96
2023-12-23T13:25:21.980Z,1003.92
2023-12-23T13:26:25.758Z,1003.94
2023-12-23T13:27:29.158Z,1003.88
2023-12-23T13:28:32.498Z,1003.94
2023-12-23T13:29:35.974Z,1003.88
2023-12-23T13:30:39.557Z,1003.84
2023-12-23T13:32:46.415Z,1003.88
2023-12-23T13:33:49.927Z,1003.96
2023-12-23T13:34:55.519Z,1003.98
2023-12-23T13:35:58.779Z,1004.02
2023-12-23T13:37:02.084Z,1003.96
2023-12-23T13:38:05.544Z,1003.96
2023-12-23T13:39:08.993Z,1003.94
2023-12-23T13:40:12.325Z,1003.96
2023-12-23T13:41:15.695Z,1004.02
2023-12-23T13:42:19.033Z,1004
2023-12-23T13:43:22.275Z,1004
2023-12-23T13:44:25.793Z,1004
2023-12-23T13:45:29.161Z,1004.14
2023-12-23T13:46:34.057Z,1004.06
2023-12-23T13:47:37.513Z,1004.08
2023-12-23T13:48:41.308Z,1004.14
2023-12-23T13:49:45.111Z,1004.2
2023-12-23T13:50:48.542Z,1004.18
2023-12-23T13:51:51.847Z,1004.26
2023-12-23T13:52:56.833Z,1004.26
2023-12-23T13:54:00.466Z,1004.28
2023-12-23T13:56:07.340Z,1004.2
2023-12-23T13:57:10.643Z,1004.26
2023-12-23T13:58:13.950Z,1004.24
2023-12-23T13:59:17.412Z,1004.28
2023-12-23T14:00:22.842Z,1004.33
2023-12-23T14:01:26.097Z,1004.31
2023-12-23T14:02:29.612Z,1004.45
2023-12-23T14:03:33.203Z,1004.31
2023-12-23T14:04:36.754Z,1004.35
2023-12-23T14:06:44.565Z,1004.31
2023-12-23T14:07:47.849Z,1004.31
2023-12-23T14:08:51.201Z,1004.31
2023-12-23T14:09:54.586Z,1004.28
2023-12-23T14:10:57.964Z,1004.29
2023-12-23T14:12:01.376Z,1004.28
2023-12-23T14:13:04.657Z,1004.2
2023-12-23T14:14:10.003Z,1004.26
2023-12-23T14:15:14.790Z,1004.29
2023-12-23T14:16:20.131Z,1004.31
2023-12-23T14:17:23.530Z,1004.37
2023-12-23T14:18:27.352Z,1004.29
2023-12-23T14:19:30.935Z,1004.37
2023-12-23T14:20:34.436Z,1004.31
2023-12-23T14:21:37.755Z,1004.31
2023-12-23T14:22:41.037Z,1004.33
2023-12-23T14:23:44.513Z,1004.37
2023-12-23T14:24:47.912Z,1004.41
2023-12-23T14:25:51.387Z,1004.31
2023-12-23T14:26:54.678Z,1004.31
2023-12-23T14:27:57.982Z,1004.31
2023-12-23T14:29:01.533Z,1004.35
2023-12-23T14:30:04.987Z,1004.33
2023-12-23T14:31:08.340Z,1004.31
2023-12-23T14:32:11.798Z,1004.33
2023-12-23T14:33:15.469Z,1004.31
2023-12-23T14:34:18.964Z,1004.41
2023-12-23T14:35:22.399Z,1004.37
2023-12-23T14:36:27.753Z,1004.31
2023-12-23T14:38:44.048Z,1004.31
2023-12-23T14:39:47.372Z,1004.33
2023-12-23T14:40:50.756Z,1004.29
2023-12-23T14:41:54.142Z,1004.37
2023-12-23T14:42:57.552Z,1004.37
2023-12-23T14:44:01.194Z,1004.47
2023-12-23T14:45:04.526Z,1004.51
2023-12-23T14:46:07.861Z,1004.47
2023-12-23T14:47:11.271Z,1004.49
2023-12-23T14:48:14.890Z,1004.49
2023-12-23T14:49:18.534Z,1004.49
2023-12-23T14:50:21.964Z,1004.43
2023-12-23T14:51:25.299Z,1004.55
2023-12-23T14:52:28.722Z,1004.45
2023-12-23T14:53:32.240Z,1004.51
2023-12-23T14:54:35.579Z,1004.53
2023-12-23T14:55:42.468Z,1004.57
2023-12-23T14:56:45.756Z,1004.57
2023-12-23T14:57:49.185Z,1004.55
2023-12-23T14:58:52.604Z,1004.57
2023-12-23T14:59:55.916Z,1004.55
2023-12-23T15:00:59.313Z,1004.63
2023-12-23T15:02:02.778Z,1004.61